Time;durP1;ratioP1;P1;durP2;ratioP2;P2;SDS_P1;SDS_P2;PMS_P1;PMS_P2;Temp;Humidity;BMP_temperature;BMP_pressure;BME280_temperature;BME280_humidity;BME280_pressure;Samples;Min_cycle;Max_cycle;Signal;HPM_P1;HPM_P2
2021/01/23 00:01:27;;;;;;;;;;;6.70;81.70;;;;;;5156856;27;19966;-70
2021/01/23 00:03:54;;;;;;;;;;;6.60;81.70;;;;;;5153027;27;19923;-70
2021/01/23 00:06:20;;;;;;;;;;;6.60;82.10;;;;;;5138248;27;19927;-70
2021/01/23 00:08:46;;;;;;;;;;;6.60;82.10;;;;;;5134173;27;20385;-70
2021/01/23 00:11:13;;;;;;;;;;;6.60;82.10;;;;;;5138292;27;19985;-70
2021/01/23 00:13:39;;;;;;;;;;;6.60;82.00;;;;;;5133940;27;20439;-70
2021/01/23 00:16:05;;;;;;;;;;;6.60;82.50;;;;;;5138064;27;20277;-70
2021/01/23 00:18:34;;;;;;;;;;;6.60;82.40;;;;;;5135345;27;19923;-70
2021/01/23 00:21:00;;;;;;;;;;;6.60;82.60;;;;;;5156493;27;19946;-70
2021/01/23 00:23:26;;;;;;;;;;;6.60;82.40;;;;;;5155989;27;20031;-70
2021/01/23 00:25:52;;;;;;;;;;;6.60;82.20;;;;;;5153464;27;19923;-70
2021/01/23 00:28:19;;;;;;;;;;;6.70;82.20;;;;;;5138056;27;19974;-70
2021/01/23 00:30:45;;;;;;;;;;;6.90;81.50;;;;;;5152522;27;19974;-70
2021/01/23 00:33:13;;;;;;;;;;;7.00;81.20;;;;;;5155914;27;20382;-70
2021/01/23 00:35:42;;;;;;;;;;;7.00;81.30;;;;;;5135235;27;19931;-70
2021/01/23 00:38:08;;;;;;;;;;;6.80;81.80;;;;;;5137586;27;19926;-70
2021/01/23 00:40:37;;;;;;;;;;;6.80;81.80;;;;;;5125948;27;19980;-70
2021/01/23 00:43:03;;;;;;;;;;;6.70;82.20;;;;;;5135275;27;19959;-70
2021/01/23 00:45:32;;;;;;;;;;;6.60;82.90;;;;;;5137811;27;20051;-70
2021/01/23 00:48:05;;;;;;;;;;;6.50;83.20;;;;;;5137275;27;19926;-70
2021/01/23 00:50:35;;;;;;;;;;;6.50;83.20;;;;;;5131444;27;19928;-70
2021/01/23 00:53:02;;;;;;;;;;;6.50;83.70;;;;;;5134880;27;20407;-70
2021/01/23 00:55:28;;;;;;;;;;;6.30;84.00;;;;;;5133132;27;20058;-70
2021/01/23 00:57:54;;;;;;;;;;;6.30;84.30;;;;;;5134664;27;20355;-70
2021/01/23 01:00:21;;;;;;;;;;;6.30;84.60;;;;;;5117088;27;19947;-70
2021/01/23 01:02:47;;;;;;;;;;;6.30;84.50;;;;;;5131538;27;20011;-70
2021/01/23 01:05:14;;;;;;;;;;;6.30;84.40;;;;;;5155335;27;19927;-70
2021/01/23 01:07:40;;;;;;;;;;;6.30;84.30;;;;;;5133637;27;19976;-70
2021/01/23 01:10:07;;;;;;;;;;;6.30;84.10;;;;;;5137422;27;19935;-71
2021/01/23 01:12:33;;;;;;;;;;;6.20;84.50;;;;;;5152360;27;20009;-71
2021/01/23 01:15:00;;;;;;;;;;;6.10;85.20;;;;;;5155524;27;19927;-71
2021/01/23 01:17:28;;;;;;;;;;;6.00;85.40;;;;;;5151818;27;19927;-71
2021/01/23 01:19:55;;;;;;;;;;;5.90;85.70;;;;;;5136960;27;19927;-71
2021/01/23 01:22:21;;;;;;;;;;;5.90;86.10;;;;;;5151623;27;19927;-71
2021/01/23 01:24:50;;;;;;;;;;;5.80;86.70;;;;;;5154889;27;20029;-71
2021/01/23 01:27:18;;;;;;;;;;;5.80;86.60;;;;;;5151747;27;19981;-71
2021/01/23 01:29:45;;;;;;;;;;;5.80;86.80;;;;;;5155239;27;19960;-71
2021/01/23 01:32:13;;;;;;;;;;;5.90;86.80;;;;;;5154775;27;19991;-71
2021/01/23 01:34:40;;;;;;;;;;;5.90;86.70;;;;;;5150433;27;19923;-71
2021/01/23 01:37:06;;;;;;;;;;;6.10;86.50;;;;;;5154718;27;19980;-71
2021/01/23 01:39:34;;;;;;;;;;;6.30;85.80;;;;;;5151403;27;19996;-71
2021/01/23 01:42:02;;;;;;;;;;;6.30;85.10;;;;;;5155025;27;20039;-71
2021/01/23 01:44:29;;;;;;;;;;;6.40;84.80;;;;;;5133467;27;19930;-71
2021/01/23 01:46:57;;;;;;;;;;;6.40;84.10;;;;;;5154700;27;19972;-71
2021/01/23 01:49:26;;;;;;;;;;;6.50;84.40;;;;;;5150337;27;20299;-71
2021/01/23 01:51:55;;;;;;;;;;;6.30;84.20;;;;;;5154795;27;20000;-71
2021/01/23 01:54:25;;;;;;;;;;;6.20;84.80;;;;;;5132920;27;19970;-71
2021/01/23 01:56:52;;;;;;;;;;;6.10;85.30;;;;;;5154244;27;19923;-71
2021/01/23 01:59:18;;;;;;;;;;;6.00;85.90;;;;;;5150683;27;20354;-71
2021/01/23 02:01:44;;;;;;;;;;;5.90;86.10;;;;;;5154535;27;20146;-71
2021/01/23 02:04:18;;;;;;;;;;;5.90;86.30;;;;;;5154405;27;19927;-71
2021/01/23 02:06:49;;;;;;;;;;;5.90;86.60;;;;;;5132833;27;20020;-71
2021/01/23 02:09:24;;;;;;;;;;;5.90;86.30;;;;;;5133628;27;19963;-71
2021/01/23 02:12:03;;;;;;;;;;;6.10;85.90;;;;;;5150192;27;20016;-71
2021/01/23 02:14:29;;;;;;;;;;;6.30;84.80;;;;;;5154366;27;19974;-71
2021/01/23 02:17:01;;;;;;;;;;;6.70;83.70;;;;;;5150038;27;19962;-71
2021/01/23 02:19:28;;;;;;;;;;;6.90;82.80;;;;;;5136163;27;19987;-71
2021/01/23 02:22:13;;;;;;;;;;;7.10;81.80;;;;;;5151138;27;19962;-71
2021/01/23 02:24:40;;;;;;;;;;;7.10;81.10;;;;;;5133568;27;19927;-71
2021/01/23 02:27:14;;;;;;;;;;;7.20;81.20;;;;;;5119684;27;19955;-71
2021/01/23 02:29:52;;;;;;;;;;;7.20;80.70;;;;;;5133119;27;19928;-71
2021/01/23 02:32:20;;;;;;;;;;;7.20;80.60;;;;;;5143806;27;19927;-71
2021/01/23 02:34:47;;;;;;;;;;;7.10;80.60;;;;;;5135847;27;20266;-71
2021/01/23 02:37:14;;;;;;;;;;;7.10;80.90;;;;;;5140215;27;19931;-71
2021/01/23 02:39:40;;;;;;;;;;;7.10;81.00;;;;;;5115158;27;19927;-71
2021/01/23 02:42:09;;;;;;;;;;;7.10;80.40;;;;;;5130889;27;19993;-71
2021/01/23 02:44:35;;;;;;;;;;;7.10;80.60;;;;;;5115065;27;20347;-71
2021/01/23 02:47:04;;;;;;;;;;;7.10;81.00;;;;;;5115207;27;19989;-71
2021/01/23 02:49:30;;;;;;;;;;;6.90;81.30;;;;;;5135455;27;19923;-71
2021/01/23 02:52:07;;;;;;;;;;;6.90;81.60;;;;;;5151250;27;19923;-71
2021/01/23 02:54:45;;;;;;;;;;;6.80;81.90;;;;;;5133047;28;19976;-71
2021/01/23 02:57:12;;;;;;;;;;;6.70;82.30;;;;;;5114458;27;19938;-71
2021/01/23 02:59:39;;;;;;;;;;;6.60;82.90;;;;;;5133750;27;20418;-71
2021/01/23 03:02:09;;;;;;;;;;;6.60;83.10;;;;;;5153764;27;19927;-71
2021/01/23 03:04:39;;;;;;;;;;;6.60;83.10;;;;;;5150051;27;19938;-71
2021/01/23 03:07:05;;;;;;;;;;;6.60;83.30;;;;;;5153296;27;19943;-71
2021/01/23 03:09:31;;;;;;;;;;;6.50;83.10;;;;;;5131442;27;19923;-71
2021/01/23 03:11:58;;;;;;;;;;;6.50;83.40;;;;;;5153459;27;19927;-71
2021/01/23 03:14:25;;;;;;;;;;;6.40;83.90;;;;;;5150253;27;19927;-71
2021/01/23 03:16:55;;;;;;;;;;;6.40;84.50;;;;;;5135416;27;19959;-71
2021/01/23 03:19:22;;;;;;;;;;;6.40;84.50;;;;;;5131523;27;19977;-71
2021/01/23 03:21:50;;;;;;;;;;;6.30;84.80;;;;;;5153111;27;19928;-71
2021/01/23 03:24:16;;;;;;;;;;;6.30;85.40;;;;;;5146138;27;19949;-71
2021/01/23 03:26:43;;;;;;;;;;;6.30;85.10;;;;;;5132526;28;20029;-71
2021/01/23 03:29:10;;;;;;;;;;;6.30;84.80;;;;;;5112698;27;20352;-71
2021/01/23 03:31:36;;;;;;;;;;;6.30;85.00;;;;;;5153389;27;19927;-71
2021/01/23 03:34:05;;;;;;;;;;;6.20;85.20;;;;;;5153532;27;19927;-71
2021/01/23 03:36:32;;;;;;;;;;;6.20;85.10;;;;;;5167386;27;20366;-71
2021/01/23 03:38:58;;;;;;;;;;;6.20;85.10;;;;;;5173909;27;19987;-71
2021/01/23 03:41:24;;;;;;;;;;;6.20;84.80;;;;;;5155259;27;19982;-71
2021/01/23 03:43:51;;;;;;;;;;;6.20;85.10;;;;;;5135201;27;19923;-71
2021/01/23 03:46:17;;;;;;;;;;;6.20;84.60;;;;;;5149798;27;19922;-71
2021/01/23 03:48:43;;;;;;;;;;;6.50;82.20;;;;;;5135234;27;19984;-71
2021/01/23 03:51:10;;;;;;;;;;;6.90;81.60;;;;;;5149876;27;19923;-71
2021/01/23 03:53:36;;;;;;;;;;;7.00;79.70;;;;;;5134595;27;19935;-71
2021/01/23 03:56:03;;;;;;;;;;;7.20;79.30;;;;;;5131662;27;19927;-71
2021/01/23 03:58:29;;;;;;;;;;;7.30;76.10;;;;;;5155360;27;19935;-71
2021/01/23 04:00:55;;;;;;;;;;;8.30;72.20;;;;;;5153555;27;19939;-71
2021/01/23 04:03:21;;;;;;;;;;;8.70;69.20;;;;;;5156957;27;19923;-71
2021/01/23 04:05:48;;;;;;;;;;;8.70;67.10;;;;;;5156538;27;19927;-71
2021/01/23 04:08:14;;;;;;;;;;;8.60;67.10;;;;;;5153285;27;19955;-71
2021/01/23 04:10:40;;;;;;;;;;;8.40;68.10;;;;;;5156662;27;19976;-71
2021/01/23 04:13:06;;;;;;;;;;;8.20;68.70;;;;;;5166911;27;20288;-71
2021/01/23 04:15:33;;;;;;;;;;;8.00;69.30;;;;;;5177567;27;20310;-71
2021/01/23 04:17:59;;;;;;;;;;;7.90;69.90;;;;;;5144159;27;19923;-71
2021/01/23 04:20:27;;;;;;;;;;;7.70;71.20;;;;;;5156377;27;19939;-71
2021/01/23 04:22:54;;;;;;;;;;;7.60;71.30;;;;;;5152854;27;20553;-71
2021/01/23 04:25:20;;;;;;;;;;;7.50;72.00;;;;;;5138390;27;19984;-71
2021/01/23 04:27:46;;;;;;;;;;;7.40;72.40;;;;;;5152656;27;19956;-71
2021/01/23 04:30:13;;;;;;;;;;;7.30;72.60;;;;;;5156532;27;19958;-71
2021/01/23 04:32:39;;;;;;;;;;;7.20;72.80;;;;;;5153485;27;19923;-71
2021/01/23 04:35:07;;;;;;;;;;;7.20;73.40;;;;;;5116967;27;19932;-71
2021/01/23 04:37:33;;;;;;;;;;;7.10;73.70;;;;;;5117458;27;19975;-71
2021/01/23 04:39:59;;;;;;;;;;;7.00;73.90;;;;;;5149725;27;19923;-71
2021/01/23 04:42:26;;;;;;;;;;;7.10;74.10;;;;;;5156454;27;20320;-70
2021/01/23 04:44:52;;;;;;;;;;;7.00;74.50;;;;;;5134241;27;19926;-70
2021/01/23 04:47:18;;;;;;;;;;;6.90;75.10;;;;;;5155773;27;20348;-70
2021/01/23 04:49:45;;;;;;;;;;;7.00;75.50;;;;;;5152313;27;19937;-70
2021/01/23 04:52:12;;;;;;;;;;;6.90;75.80;;;;;;5137524;27;19962;-70
2021/01/23 04:54:41;;;;;;;;;;;6.90;76.50;;;;;;5153212;27;20014;-70
2021/01/23 04:57:08;;;;;;;;;;;6.90;77.20;;;;;;5137444;27;19923;-70
2021/01/23 04:59:34;;;;;;;;;;;6.80;77.50;;;;;;5152159;27;20054;-70
2021/01/23 05:02:17;;;;;;;;;;;6.80;78.10;;;;;;5155792;27;20009;-70
2021/01/23 05:04:52;;;;;;;;;;;6.80;78.60;;;;;;5152509;27;20679;-70
2021/01/23 05:07:26;;;;;;;;;;;6.80;78.70;;;;;;5137245;27;20488;-70
2021/01/23 05:09:52;;;;;;;;;;;6.70;79.10;;;;;;5132736;27;19984;-70
2021/01/23 05:12:34;;;;;;;;;;;6.70;79.20;;;;;;5155523;27;20043;-70
2021/01/23 05:15:03;;;;;;;;;;;6.70;79.50;;;;;;5154228;27;19927;-70
2021/01/23 05:17:29;;;;;;;;;;;6.70;80.00;;;;;;5149533;27;19923;-70
2021/01/23 05:19:56;;;;;;;;;;;6.80;79.90;;;;;;5134320;27;19927;-70
2021/01/23 05:22:25;;;;;;;;;;;6.70;79.80;;;;;;5148902;27;19923;-70
2021/01/23 05:24:52;;;;;;;;;;;6.80;80.00;;;;;;5154838;27;19923;-70
2021/01/23 05:27:19;;;;;;;;;;;6.80;79.90;;;;;;5151690;27;19980;-70
2021/01/23 05:29:56;;;;;;;;;;;6.80;79.80;;;;;;5136728;27;19926;-70
2021/01/23 05:32:22;;;;;;;;;;;6.80;79.30;;;;;;5121594;27;19976;-70
2021/01/23 05:34:48;;;;;;;;;;;6.80;79.40;;;;;;5116291;27;19938;-69
2021/01/23 05:37:34;;;;;;;;;;;6.90;79.10;;;;;;5140132;27;19967;-69
2021/01/23 05:40:00;;;;;;;;;;;6.80;79.20;;;;;;5136671;27;20362;-70
2021/01/23 05:42:28;;;;;;;;;;;6.80;78.70;;;;;;5151412;27;19973;-70
2021/01/23 05:45:04;;;;;;;;;;;6.80;78.50;;;;;;5153976;27;19923;-70
2021/01/23 05:47:30;;;;;;;;;;;6.70;77.80;;;;;;5151495;27;19923;-69
2021/01/23 05:49:58;;;;;;;;;;;6.60;77.70;;;;;;5154684;27;19954;-69
2021/01/23 05:52:25;;;;;;;;;;;6.40;78.10;;;;;;5151614;27;20131;-69
2021/01/23 05:54:51;;;;;;;;;;;6.30;78.30;;;;;;5127856;27;20047;-70
2021/01/23 05:57:18;;;;;;;;;;;6.20;78.80;;;;;;5147989;27;19954;-69
2021/01/23 05:59:44;;;;;;;;;;;6.20;78.70;;;;;;5133185;27;20018;-69
2021/01/23 06:02:14;;;;;;;;;;;6.00;78.50;;;;;;5154270;27;20439;-70
2021/01/23 06:04:44;;;;;;;;;;;5.80;79.20;;;;;;5149761;27;19992;-69
2021/01/23 06:07:12;;;;;;;;;;;5.70;79.70;;;;;;5133358;27;20339;-69
2021/01/23 06:09:40;;;;;;;;;;;5.60;79.90;;;;;;5157714;27;19929;-70
2021/01/23 06:12:25;;;;;;;;;;;5.50;80.30;;;;;;5175186;27;20362;-69
2021/01/23 06:14:51;;;;;;;;;;;5.40;81.00;;;;;;5135695;27;19956;-69
2021/01/23 06:17:37;;;;;;;;;;;5.30;82.30;;;;;;5136435;27;19974;-69
2021/01/23 06:20:04;;;;;;;;;;;5.30;82.40;;;;;;5132491;27;20026;-70
2021/01/23 06:22:50;;;;;;;;;;;5.10;83.30;;;;;;5135822;27;19934;-69
2021/01/23 06:25:19;;;;;;;;;;;5.00;84.30;;;;;;5150326;27;19980;-69
2021/01/23 06:27:46;;;;;;;;;;;5.00;84.30;;;;;;5135533;27;19927;-70
2021/01/23 06:30:26;;;;;;;;;;;4.90;84.40;;;;;;5124614;27;20416;-69
2021/01/23 06:32:57;;;;;;;;;;;5.00;84.60;;;;;;5135806;27;19953;-69
2021/01/23 06:35:23;;;;;;;;;;;4.90;84.60;;;;;;5150541;27;19988;-69
2021/01/23 06:37:49;;;;;;;;;;;4.90;84.90;;;;;;5136048;27;19923;-70
2021/01/23 06:40:26;;;;;;;;;;;4.90;85.00;;;;;;5149812;27;20420;-69
2021/01/23 06:42:54;;;;;;;;;;;4.90;84.90;;;;;;5153863;27;20432;-69
2021/01/23 06:45:32;;;;;;;;;;;4.90;84.60;;;;;;5131441;27;19927;-69
2021/01/23 06:48:00;;;;;;;;;;;4.90;84.30;;;;;;5115280;28;20320;-69
2021/01/23 06:50:34;;;;;;;;;;;4.90;83.30;;;;;;5130837;27;19958;-69
2021/01/23 06:53:04;;;;;;;;;;;4.90;83.10;;;;;;5132773;28;19927;-69
2021/01/23 06:55:47;;;;;;;;;;;5.00;81.60;;;;;;5143104;27;20004;-69
2021/01/23 06:58:22;;;;;;;;;;;5.10;81.40;;;;;;5154075;27;19938;-69
2021/01/23 07:00:52;;;;;;;;;;;5.10;80.10;;;;;;5134831;27;19923;-69
2021/01/23 07:03:18;;;;;;;;;;;5.00;80.30;;;;;;5132173;27;19956;-69
2021/01/23 07:05:57;;;;;;;;;;;5.00;80.40;;;;;;5152779;27;19933;-69
2021/01/23 07:08:29;;;;;;;;;;;5.00;80.30;;;;;;5141097;27;19923;-69
2021/01/23 07:11:12;;;;;;;;;;;5.00;80.40;;;;;;5158640;27;19931;-69
2021/01/23 07:13:54;;;;;;;;;;;5.00;80.30;;;;;;5153735;27;20278;-69
2021/01/23 07:16:20;;;;;;;;;;;5.00;81.30;;;;;;5169342;27;20441;-69
2021/01/23 07:18:57;;;;;;;;;;;4.90;81.10;;;;;;5154405;27;20038;-69
2021/01/23 07:21:23;;;;;;;;;;;4.90;82.20;;;;;;5135270;27;19923;-69
2021/01/23 07:23:52;;;;;;;;;;;4.80;82.50;;;;;;5156565;27;20354;-70
2021/01/23 07:26:18;;;;;;;;;;;4.80;82.90;;;;;;5156131;27;19930;-69
2021/01/23 07:28:48;;;;;;;;;;;4.70;83.00;;;;;;5160084;27;20305;-69
2021/01/23 07:31:22;;;;;;;;;;;4.70;83.40;;;;;;5153437;27;19927;-69
2021/01/23 07:33:49;;;;;;;;;;;4.50;84.80;;;;;;5145677;27;19927;-69
2021/01/23 07:36:28;;;;;;;;;;;4.50;85.80;;;;;;5157453;27;19931;-69
2021/01/23 07:38:54;;;;;;;;;;;4.40;86.00;;;;;;5136054;27;20000;-69
2021/01/23 07:41:20;;;;;;;;;;;4.30;87.70;;;;;;5149514;27;20355;-69
2021/01/23 07:43:47;;;;;;;;;;;4.20;88.70;;;;;;5171117;27;20406;-70
2021/01/23 07:46:14;;;;;;;;;;;4.10;89.10;;;;;;5157354;27;19931;-70
2021/01/23 07:48:41;;;;;;;;;;;4.00;90.00;;;;;;5157142;27;20026;-70
2021/01/23 07:51:09;;;;;;;;;;;4.00;90.30;;;;;;5125990;27;19927;-70
2021/01/23 07:53:36;;;;;;;;;;;4.10;90.10;;;;;;5138847;27;19988;-70
2021/01/23 07:56:02;;;;;;;;;;;4.00;90.20;;;;;;5135062;27;20371;-69
2021/01/23 07:58:30;;;;;;;;;;;3.90;90.50;;;;;;5157227;27;19970;-70
2021/01/23 08:00:56;;;;;;;;;;;3.90;90.50;;;;;;5153361;27;19927;-69
2021/01/23 08:03:35;;;;;;;;;;;3.90;90.50;;;;;;5156340;27;20257;-70
2021/01/23 08:06:05;;;;;;;;;;;3.90;90.40;;;;;;5146309;27;19927;-70
2021/01/23 08:08:34;;;;;;;;;;;3.90;90.30;;;;;;5138259;27;20002;-69
2021/01/23 08:11:01;;;;;;;;;;;4.00;90.10;;;;;;5134661;27;19967;-69
2021/01/23 08:13:29;;;;;;;;;;;4.00;90.20;;;;;;5138733;27;19988;-70
2021/01/23 08:16:16;;;;;;;;;;;3.90;90.20;;;;;;5132842;27;20010;-69
2021/01/23 08:18:43;;;;;;;;;;;4.00;90.20;;;;;;5156877;27;19980;-70
2021/01/23 08:21:19;;;;;;;;;;;4.00;90.10;;;;;;5153112;27;19923;-69
2021/01/23 08:23:49;;;;;;;;;;;4.00;89.90;;;;;;5133568;27;19931;-69
2021/01/23 08:26:15;;;;;;;;;;;3.90;89.50;;;;;;5153205;27;20284;-69
2021/01/23 08:28:43;;;;;;;;;;;3.90;89.90;;;;;;5156564;27;19927;-69
2021/01/23 08:31:16;;;;;;;;;;;3.90;90.00;;;;;;5151649;27;19926;-69
2021/01/23 08:33:43;;;;;;;;;;;3.90;90.00;;;;;;5156169;27;20339;-69
2021/01/23 08:36:10;;;;;;;;;;;3.90;90.00;;;;;;5156693;27;20003;-69
2021/01/23 08:38:36;;;;;;;;;;;3.90;90.30;;;;;;5132588;27;20003;-69
2021/01/23 08:41:03;;;;;;;;;;;3.90;90.20;;;;;;5117477;27;20263;-69
2021/01/23 08:43:31;;;;;;;;;;;3.90;90.00;;;;;;5129362;27;19984;-69
2021/01/23 08:45:58;;;;;;;;;;;3.90;89.50;;;;;;5155932;27;20355;-70
2021/01/23 08:48:24;;;;;;;;;;;3.90;89.90;;;;;;5134103;27;19927;-69
2021/01/23 08:50:50;;;;;;;;;;;4.00;89.00;;;;;;5155295;27;19977;-70
2021/01/23 08:53:19;;;;;;;;;;;4.10;89.00;;;;;;5124912;27;20418;-70
2021/01/23 08:55:45;;;;;;;;;;;4.10;88.20;;;;;;5116652;27;19951;-69
2021/01/23 08:58:14;;;;;;;;;;;4.20;87.20;;;;;;5118976;27;19927;-69
2021/01/23 09:00:43;;;;;;;;;;;4.30;86.50;;;;;;5137629;27;20304;-69
2021/01/23 09:03:11;;;;;;;;;;;4.40;85.50;;;;;;5133677;27;20702;-69
2021/01/23 09:05:40;;;;;;;;;;;4.50;84.70;;;;;;5154974;27;20006;-69
2021/01/23 09:08:06;;;;;;;;;;;4.60;83.70;;;;;;5137157;27;19973;-69
2021/01/23 09:10:33;;;;;;;;;;;4.60;82.90;;;;;;5135020;27;19992;-69
2021/01/23 09:12:59;;;;;;;;;;;4.80;83.30;;;;;;5155211;27;20312;-69
2021/01/23 09:15:25;;;;;;;;;;;4.90;82.00;;;;;;5161825;27;19966;-69
2021/01/23 09:17:51;;;;;;;;;;;5.00;80.80;;;;;;5176497;27;19923;-69
2021/01/23 09:20:18;;;;;;;;;;;5.00;80.20;;;;;;5140484;27;19945;-69
2021/01/23 09:22:44;;;;;;;;;;;5.10;79.80;;;;;;5154875;27;19927;-69
2021/01/23 09:25:10;;;;;;;;;;;5.30;79.40;;;;;;5123987;27;20048;-70
2021/01/23 09:27:36;;;;;;;;;;;5.30;78.30;;;;;;5134170;27;19931;-70
2021/01/23 09:30:06;;;;;;;;;;;5.40;77.30;;;;;;5131473;27;19980;-69
2021/01/23 09:32:33;;;;;;;;;;;5.60;75.60;;;;;;5135062;27;19934;-69
2021/01/23 09:34:59;;;;;;;;;;;5.70;74.70;;;;;;5116333;27;19931;-69
2021/01/23 09:37:25;;;;;;;;;;;5.70;73.60;;;;;;5136894;27;20011;-69
2021/01/23 09:39:52;;;;;;;;;;;5.80;73.00;;;;;;5136774;27;19970;-69
2021/01/23 09:42:19;;;;;;;;;;;5.90;72.50;;;;;;5114321;27;19949;-69
2021/01/23 09:44:45;;;;;;;;;;;6.00;71.60;;;;;;5116263;27;19956;-69
2021/01/23 09:47:14;;;;;;;;;;;6.00;71.90;;;;;;5128907;27;19977;-69
2021/01/23 09:49:40;;;;;;;;;;;5.90;71.50;;;;;;5136738;27;19938;-70
2021/01/23 09:52:07;;;;;;;;;;;5.90;70.50;;;;;;5148416;27;19931;-69
2021/01/23 09:54:33;;;;;;;;;;;5.70;71.80;;;;;;5115809;27;19923;-69
2021/01/23 09:57:00;;;;;;;;;;;5.90;71.10;;;;;;5112476;27;20427;-70
2021/01/23 09:59:30;;;;;;;;;;;6.00;71.20;;;;;;5116014;27;19927;-70
2021/01/23 10:01:59;;;;;;;;;;;6.00;71.00;;;;;;5136904;27;19950;-70
2021/01/23 10:04:27;;;;;;;;;;;6.10;69.90;;;;;;5154554;27;19931;-70
2021/01/23 10:06:54;;;;;;;;;;;6.30;68.90;;;;;;5151523;27;20023;-70
2021/01/23 10:09:20;;;;;;;;;;;6.40;69.30;;;;;;5153926;27;20239;-70
2021/01/23 10:11:47;;;;;;;;;;;6.60;68.50;;;;;;5151765;27;19991;-70
2021/01/23 10:14:14;;;;;;;;;;;6.80;67.80;;;;;;5134344;27;19999;-69
2021/01/23 10:16:40;;;;;;;;;;;6.50;67.90;;;;;;5115526;27;20589;-69
2021/01/23 10:19:09;;;;;;;;;;;6.40;68.40;;;;;;5129889;27;19923;-69
2021/01/23 10:21:35;;;;;;;;;;;6.50;68.30;;;;;;5154333;27;20003;-69
2021/01/23 10:24:02;;;;;;;;;;;6.60;67.00;;;;;;5131892;27;20161;-69
2021/01/23 10:26:29;;;;;;;;;;;6.60;66.90;;;;;;5135678;27;19983;-70
2021/01/23 10:28:56;;;;;;;;;;;6.70;67.20;;;;;;5132091;27;19963;-70
2021/01/23 10:31:23;;;;;;;;;;;6.80;66.90;;;;;;5135523;27;20359;-70
2021/01/23 10:33:49;;;;;;;;;;;6.70;66.20;;;;;;5149906;27;20014;-70
2021/01/23 10:36:15;;;;;;;;;;;6.40;66.60;;;;;;5135359;27;20076;-70
2021/01/23 10:38:42;;;;;;;;;;;6.20;67.80;;;;;;5150158;27;20338;-70
2021/01/23 10:41:08;;;;;;;;;;;6.70;66.70;;;;;;5135517;27;19923;-70
2021/01/23 10:43:34;;;;;;;;;;;7.00;66.00;;;;;;5133719;27;20030;-70
2021/01/23 10:46:03;;;;;;;;;;;7.10;64.60;;;;;;5113841;27;19927;-70
2021/01/23 10:48:29;;;;;;;;;;;6.90;64.90;;;;;;5132934;27;19924;-70
2021/01/23 10:50:56;;;;;;;;;;;7.10;65.80;;;;;;5147562;27;19931;-71
2021/01/23 10:53:22;;;;;;;;;;;7.00;65.40;;;;;;5153582;27;19927;-70
2021/01/23 10:55:51;;;;;;;;;;;6.90;66.30;;;;;;5148705;27;19942;-69
2021/01/23 10:58:17;;;;;;;;;;;6.80;66.80;;;;;;5153766;27;19927;-69
2021/01/23 11:00:43;;;;;;;;;;;6.60;67.40;;;;;;5150683;27;19927;-70
2021/01/23 11:03:09;;;;;;;;;;;6.50;68.10;;;;;;5133937;27;19959;-70
2021/01/23 11:05:37;;;;;;;;;;;6.50;67.60;;;;;;5156474;27;19941;-70
2021/01/23 11:08:03;;;;;;;;;;;6.60;67.70;;;;;;5175577;27;19979;-70
2021/01/23 11:10:30;;;;;;;;;;;6.70;66.20;;;;;;5129875;27;19927;-70
2021/01/23 11:12:57;;;;;;;;;;;6.60;67.20;;;;;;5157837;27;20018;-70
2021/01/23 11:15:24;;;;;;;;;;;6.60;67.70;;;;;;5154714;27;19933;-70
2021/01/23 11:17:50;;;;;;;;;;;6.90;67.40;;;;;;5157887;27;20345;-70
2021/01/23 11:20:17;;;;;;;;;;;7.10;66.60;;;;;;5158015;27;19927;-70
2021/01/23 11:22:43;;;;;;;;;;;7.50;66.60;;;;;;5135947;27;19962;-70
2021/01/23 11:25:11;;;;;;;;;;;8.20;64.00;;;;;;5138118;27;19935;-70
2021/01/23 11:27:37;;;;;;;;;;;8.70;62.50;;;;;;5154069;27;20003;-70
2021/01/23 11:30:07;;;;;;;;;;;8.30;59.20;;;;;;5138497;27;20021;-70
2021/01/23 11:32:36;;;;;;;;;;;8.30;60.90;;;;;;5126954;27;19983;-69
2021/01/23 11:35:03;;;;;;;;;;;8.30;61.80;;;;;;5157330;27;20232;-69
2021/01/23 11:37:30;;;;;;;;;;;8.10;61.70;;;;;;5134123;27;19927;-70
2021/01/23 11:39:56;;;;;;;;;;;7.80;63.00;;;;;;5157251;27;19927;-70
2021/01/23 11:42:25;;;;;;;;;;;7.40;64.10;;;;;;5136138;27;19923;-69
2021/01/23 11:44:51;;;;;;;;;;;7.20;65.00;;;;;;5157080;27;19962;-69
2021/01/23 11:47:17;;;;;;;;;;;6.80;66.10;;;;;;5135225;27;20416;-69
2021/01/23 11:49:46;;;;;;;;;;;6.80;66.90;;;;;;5137575;27;19934;-69
2021/01/23 11:52:12;;;;;;;;;;;6.80;67.90;;;;;;5155125;27;20588;-69
2021/01/23 11:54:39;;;;;;;;;;;6.60;68.70;;;;;;5153283;27;20404;-68
2021/01/23 11:57:08;;;;;;;;;;;6.40;69.60;;;;;;5156563;27;20335;-70
2021/01/23 11:59:35;;;;;;;;;;;6.20;70.10;;;;;;5153290;27;19996;-69
2021/01/23 12:02:01;;;;;;;;;;;5.90;70.00;;;;;;5155919;27;19962;-68
2021/01/23 12:04:28;;;;;;;;;;;5.90;70.50;;;;;;5153143;27;19939;-68
2021/01/23 12:06:54;;;;;;;;;;;5.80;70.40;;;;;;5156579;27;19923;-69
2021/01/23 12:09:23;;;;;;;;;;;6.10;70.60;;;;;;5134129;27;19970;-71
2021/01/23 12:11:52;;;;;;;;;;;6.20;70.30;;;;;;5138893;27;20632;-71
2021/01/23 12:14:18;;;;;;;;;;;6.10;70.40;;;;;;5134881;27;19923;-71
2021/01/23 12:16:44;;;;;;;;;;;6.20;70.00;;;;;;5138448;27;20429;-69
2021/01/23 12:19:11;;;;;;;;;;;6.30;69.20;;;;;;5133002;27;19946;-71
2021/01/23 12:21:39;;;;;;;;;;;6.30;69.40;;;;;;5135935;27;19928;-69
2021/01/23 12:24:06;;;;;;;;;;;6.30;68.50;;;;;;5153519;27;19923;-69
2021/01/23 12:26:34;;;;;;;;;;;6.10;68.20;;;;;;5152720;27;19927;-69
2021/01/23 12:29:01;;;;;;;;;;;6.00;70.20;;;;;;5155080;27;19938;-68
2021/01/23 12:31:27;;;;;;;;;;;6.20;70.40;;;;;;5152669;27;20250;-69
2021/01/23 12:33:54;;;;;;;;;;;6.30;68.90;;;;;;5143213;27;20374;-69
2021/01/23 12:36:20;;;;;;;;;;;6.20;68.50;;;;;;5143963;27;19955;-69
2021/01/23 12:38:49;;;;;;;;;;;6.40;69.40;;;;;;5144245;27;19930;-70
2021/01/23 12:41:18;;;;;;;;;;;6.40;68.70;;;;;;5151189;27;19927;-69
2021/01/23 12:43:44;;;;;;;;;;;6.40;68.10;;;;;;5157787;27;19974;-69
2021/01/23 12:46:14;;;;;;;;;;;6.40;68.20;;;;;;5166311;27;20417;-70
2021/01/23 12:48:43;;;;;;;;;;;6.30;68.20;;;;;;5155762;27;19931;-70
2021/01/23 12:51:11;;;;;;;;;;;6.10;68.00;;;;;;5150972;27;19970;-69
2021/01/23 12:53:37;;;;;;;;;;;6.10;68.70;;;;;;5155931;27;19931;-72
2021/01/23 12:56:04;;;;;;;;;;;6.10;69.60;;;;;;5135438;27;19956;-70
2021/01/23 12:58:30;;;;;;;;;;;6.00;68.70;;;;;;5154040;27;20374;-70
2021/01/23 13:00:56;;;;;;;;;;;6.20;68.70;;;;;;5154594;27;19983;-69
2021/01/23 13:03:23;;;;;;;;;;;6.30;68.30;;;;;;5151975;27;20350;-69
2021/01/23 13:05:50;;;;;;;;;;;6.30;68.30;;;;;;5137667;27;19983;-70
2021/01/23 13:08:16;;;;;;;;;;;6.20;68.80;;;;;;5160463;27;19935;-70
2021/01/23 13:10:42;;;;;;;;;;;6.40;69.80;;;;;;5176020;27;19981;-70
2021/01/23 13:13:08;;;;;;;;;;;6.60;68.90;;;;;;5162249;27;19923;-70
2021/01/23 13:15:35;;;;;;;;;;;6.60;67.80;;;;;;5154886;27;19979;-70
2021/01/23 13:18:01;;;;;;;;;;;6.50;66.70;;;;;;5157083;27;20415;-69
2021/01/23 13:20:29;;;;;;;;;;;6.20;68.30;;;;;;5167080;27;19927;-69
2021/01/23 13:22:55;;;;;;;;;;;6.10;68.90;;;;;;5133678;27;19983;-69
2021/01/23 13:25:22;;;;;;;;;;;6.00;69.50;;;;;;5155341;27;19931;-69
2021/01/23 13:27:49;;;;;;;;;;;6.00;69.10;;;;;;5155065;27;19992;-70
2021/01/23 13:30:17;;;;;;;;;;;6.00;69.50;;;;;;5111794;27;20321;-70
2021/01/23 13:32:46;;;;;;;;;;;6.00;69.40;;;;;;5134636;27;19984;-69
2021/01/23 13:35:14;;;;;;;;;;;6.00;68.80;;;;;;5148809;27;19941;-69
2021/01/23 13:37:40;;;;;;;;;;;5.80;70.30;;;;;;5154835;27;20396;-69
2021/01/23 13:40:07;;;;;;;;;;;5.80;70.10;;;;;;5151268;27;20439;-69
2021/01/23 13:42:38;;;;;;;;;;;5.70;70.00;;;;;;5148472;27;20326;-69
2021/01/23 13:45:05;;;;;;;;;;;5.50;70.90;;;;;;5141359;27;19927;-69
2021/01/23 13:47:32;;;;;;;;;;;5.50;71.40;;;;;;5155007;27;19931;-70
2021/01/23 13:49:58;;;;;;;;;;;5.40;70.70;;;;;;5151128;27;19991;-69
2021/01/23 13:52:26;;;;;;;;;;;5.40;71.30;;;;;;5155060;27;19923;-69
2021/01/23 13:54:53;;;;;;;;;;;5.40;71.60;;;;;;5131730;27;19976;-69
2021/01/23 13:57:19;;;;;;;;;;;5.40;71.40;;;;;;5154441;27;19927;-69
2021/01/23 13:59:45;;;;;;;;;;;5.40;71.30;;;;;;5151399;27;19999;-69
2021/01/23 14:02:14;;;;;;;;;;;5.40;71.10;;;;;;5154712;27;19992;-69
2021/01/23 14:04:40;;;;;;;;;;;5.50;70.50;;;;;;5154711;27;19927;-69
2021/01/23 14:07:06;;;;;;;;;;;5.60;70.50;;;;;;5132632;27;19952;-69
2021/01/23 14:09:33;;;;;;;;;;;5.60;70.60;;;;;;5154580;27;19922;-70
2021/01/23 14:11:59;;;;;;;;;;;5.60;70.70;;;;;;5118596;27;19928;-69
2021/01/23 14:14:25;;;;;;;;;;;5.60;70.80;;;;;;5133990;27;19988;-70
2021/01/23 14:16:52;;;;;;;;;;;5.90;70.70;;;;;;5112660;27;19931;-69
2021/01/23 14:19:21;;;;;;;;;;;6.10;69.50;;;;;;5115518;27;20375;-70
2021/01/23 14:21:47;;;;;;;;;;;6.30;68.70;;;;;;5138378;27;19987;-69
2021/01/23 14:24:13;;;;;;;;;;;6.40;68.00;;;;;;5154387;27;19930;-70
2021/01/23 14:26:40;;;;;;;;;;;6.40;67.80;;;;;;5150625;27;19984;-69
2021/01/23 14:29:06;;;;;;;;;;;6.30;67.40;;;;;;5154401;27;20131;-70
2021/01/23 14:31:35;;;;;;;;;;;6.50;67.70;;;;;;5150197;27;19927;-70
2021/01/23 14:34:02;;;;;;;;;;;6.70;67.00;;;;;;5154833;27;20287;-70
2021/01/23 14:36:29;;;;;;;;;;;6.70;67.00;;;;;;5154004;27;19927;-70